Skip Navigation LinksHome page > Weather > Current weather Skip Navigation Links

Current Weather

Indira Gandhi Intl Apt, New Delhi, India

For information only: do not use for flight planning or navigation.
Latest weather
Observation time Friday, September 30, 2016 3:00 PM IST
Local time Friday, September 30, 2016 3:37 PM IST
Flight conditions Instrument Meteorological Conditions
Winds
Wind direction East-Northeast (60°)
Wind speed 3 mph
Visibility 2.2 mi.
Present weather haze
Sky condition
Ceiling unlimited
Cloud layer few clouds 4,000 ft.
Cloud layer scattered clouds 10,000 ft.
Temperature 95°F
Dewpoint 72°F
Altimeter 29.68 in.Hg
Derived measurements
Relative humidity 47%
Heat index 103°F
Density altitude 3666 ft.
Remarks
No significant changes expected in the next two hours.
METAR VIDP 300930Z 06003KT 3500 HZ FEW040 SCT100 35/22 Q1005 NOSIG

Settings

Location code

InnerDrive.Weather 4.0.5722.1 Release CLR 4.0.30319.34209
Copyright ©2015 Inner Drive Technology. All rights reserved. Portions Copyright ©1986-2015 David Braverman.

Find weather

Site navigation


Skip Navigation Links

Place info

Page info

PayPal - The safer, easier way to pay online!

Return home.

Copyright ©2016 Inner Drive Technology. Purveyors of fine, hand-crafted computer software. Page printed 2016-09-30T10:07:17 UTC.